Time;durP1;ratioP1;P1;durP2;ratioP2;P2;SDS_P1;SDS_P2;PMS_P1;PMS_P2;Temp;Humidity;BMP_temperature;BMP_pressure;BME280_temperature;BME280_humidity;BME280_pressure;Samples;Min_cycle;Max_cycle;Signal;HPM_P1;HPM_P2
2022/02/22 00:01:33;;;;;;;1.10;0.73;;;;;;;;;;6186426;23;20005;-86
2022/02/22 00:03:58;;;;;;;1.00;0.90;;;;;;;;;;6185907;23;20001;-86
2022/02/22 00:06:24;;;;;;;0.85;0.80;;;;;;;;;;6186317;23;20005;-84
2022/02/22 00:08:49;;;;;;;0.80;0.80;;;;;;;;;;6187010;23;20009;-86
2022/02/22 00:11:15;;;;;;;0.80;0.80;;;;;;;;;;6186212;23;20005;-86
2022/02/22 00:13:40;;;;;;;1.45;0.55;;;;;;;;;;6186457;23;20008;-84
2022/02/22 00:16:06;;;;;;;0.60;0.60;;;;;;;;;;6186352;23;20005;-86
2022/02/22 00:18:33;;;;;;;1.25;0.90;;;;;;;;;;6186490;23;20427;-83
2022/02/22 00:20:58;;;;;;;0.80;0.80;;;;;;;;;;6186092;23;20032;-86
2022/02/22 00:23:24;;;;;;;1.67;0.82;;;;;;;;;;6186150;23;20005;-83
2022/02/22 00:25:49;;;;;;;1.08;0.90;;;;;;;;;;6186545;23;20001;-86
2022/02/22 00:28:19;;;;;;;0.80;0.60;;;;;;;;;;6186622;23;20012;-83
2022/02/22 00:30:49;;;;;;;0.80;0.80;;;;;;;;;;6186100;23;20060;-86
2022/02/22 00:33:14;;;;;;;1.77;1.00;;;;;;;;;;6186210;23;20005;-83
2022/02/22 00:35:40;;;;;;;0.73;0.73;;;;;;;;;;6186265;23;20328;-86
2022/02/22 00:38:06;;;;;;;1.35;0.77;;;;;;;;;;6186603;23;20005;-86
2022/02/22 00:40:31;;;;;;;0.70;0.68;;;;;;;;;;6186474;23;20405;-86
2022/02/22 00:42:57;;;;;;;1.83;0.90;;;;;;;;;;6186355;23;20009;-85
2022/02/22 00:45:22;;;;;;;1.23;0.77;;;;;;;;;;6184683;23;20009;-86
2022/02/22 00:47:49;;;;;;;0.80;0.80;;;;;;;;;;6186081;23;20012;-86
2022/02/22 00:50:14;;;;;;;0.60;0.60;;;;;;;;;;6186150;23;20001;-86
2022/02/22 00:52:40;;;;;;;0.88;0.80;;;;;;;;;;6186414;23;20067;-87
2022/02/22 00:55:06;;;;;;;0.60;0.60;;;;;;;;;;6186358;23;20032;-86
2022/02/22 00:57:32;;;;;;;0.80;0.80;;;;;;;;;;6186250;23;20396;-84
2022/02/22 00:59:57;;;;;;;0.93;0.80;;;;;;;;;;6186198;23;20072;-83
2022/02/22 02:09:13;;;;;;;0.73;0.60;;;;;;;;;;6213575;23;20005;-86
2022/02/22 02:11:58;;;;;;;0.40;0.40;;;;;;;;;;6139386;23;1154907;-88
2022/02/22 02:14:24;;;;;;;0.82;0.50;;;;;;;;;;6187781;23;20009;-87
2022/02/22 02:16:51;;;;;;;0.50;0.50;;;;;;;;;;6187755;23;20008;-88
2022/02/22 02:19:18;;;;;;;1.00;0.70;;;;;;;;;;6187695;23;20047;-88
2022/02/22 02:21:45;;;;;;;0.65;0.65;;;;;;;;;;6187466;23;20027;-87
2022/02/22 02:24:18;;;;;;;0.93;0.60;;;;;;;;;;6187797;23;20084;-84
2022/02/22 02:26:44;;;;;;;0.70;0.70;;;;;;;;;;6187179;23;20009;-87
2022/02/22 02:29:11;;;;;;;0.85;0.70;;;;;;;;;;6187358;23;20004;-87
2022/02/22 02:31:38;;;;;;;0.55;0.55;;;;;;;;;;6187546;23;20075;-87
2022/02/22 02:34:05;;;;;;;0.63;0.63;;;;;;;;;;6187781;23;20320;-84
2022/02/22 02:36:35;;;;;;;0.63;0.63;;;;;;;;;;6187083;23;20025;-84
2022/02/22 02:39:02;;;;;;;1.23;0.70;;;;;;;;;;6187417;23;20330;-87
2022/02/22 02:41:28;;;;;;;0.60;0.60;;;;;;;;;;6187079;23;20455;-87
2022/02/22 02:43:58;;;;;;;0.70;0.70;;;;;;;;;;6187186;23;20005;-87
2022/02/22 02:46:23;;;;;;;0.85;0.85;;;;;;;;;;6187360;23;20024;-84
2022/02/22 02:48:49;;;;;;;0.80;0.60;;;;;;;;;;6187483;23;20428;-88
2022/02/22 02:51:14;;;;;;;1.00;1.00;;;;;;;;;;6187157;23;20080;-88
2022/02/22 02:53:40;;;;;;;1.52;1.10;;;;;;;;;;6187212;23;20051;-84
2022/02/22 02:56:05;;;;;;;1.30;1.20;;;;;;;;;;6186973;23;20013;-87
2022/02/22 02:58:31;;;;;;;1.95;0.85;;;;;;;;;;6187095;23;20009;-87
2022/02/22 03:00:56;;;;;;;1.33;0.93;;;;;;;;;;6187298;23;20471;-87
2022/02/22 03:03:22;;;;;;;1.15;1.02;;;;;;;;;;6187392;23;20324;-87
2022/02/22 03:05:47;;;;;;;1.10;1.00;;;;;;;;;;6187151;23;20005;-87
2022/02/22 03:08:12;;;;;;;1.48;1.15;;;;;;;;;;6186864;23;20413;-87
2022/02/22 03:10:38;;;;;;;1.80;1.10;;;;;;;;;;6186964;23;20016;-86
2022/02/22 03:13:03;;;;;;;1.98;1.13;;;;;;;;;;6186753;23;20012;-88
2022/02/22 03:15:28;;;;;;;2.33;1.17;;;;;;;;;;6187018;23;20001;-87
2022/02/22 03:17:54;;;;;;;2.22;1.38;;;;;;;;;;6185248;23;20009;-87
2022/02/22 03:20:19;;;;;;;2.35;1.13;;;;;;;;;;6187050;23;20001;-87
2022/02/22 03:22:45;;;;;;;1.33;1.02;;;;;;;;;;6186562;23;20005;-85
2022/02/22 03:25:13;;;;;;;1.02;0.75;;;;;;;;;;6187001;23;20005;-87
2022/02/22 03:27:39;;;;;;;1.55;1.10;;;;;;;;;;6186858;23;20028;-87
2022/02/22 03:30:06;;;;;;;0.90;0.85;;;;;;;;;;6185404;23;20409;-87
2022/02/22 03:32:31;;;;;;;0.93;0.90;;;;;;;;;;6186688;23;20001;-84
2022/02/22 03:34:57;;;;;;;1.40;1.30;;;;;;;;;;6186775;23;20005;-88
2022/02/22 03:37:22;;;;;;;1.10;0.82;;;;;;;;;;6186807;23;20064;-88
2022/02/22 03:39:48;;;;;;;2.00;1.30;;;;;;;;;;6186773;23;20005;-87
2022/02/22 03:42:13;;;;;;;3.13;1.20;;;;;;;;;;6186576;23;20032;-87
2022/02/22 03:44:39;;;;;;;1.00;0.90;;;;;;;;;;6186690;23;19997;-87
2022/02/22 03:47:04;;;;;;;1.48;1.10;;;;;;;;;;6186642;23;20417;-85
2022/02/22 03:49:30;;;;;;;2.53;1.40;;;;;;;;;;6186659;23;20424;-85
2022/02/22 03:51:55;;;;;;;2.95;1.38;;;;;;;;;;6186569;23;20005;-84
2022/02/22 03:54:20;;;;;;;1.25;1.15;;;;;;;;;;6186574;23;20005;-87
2022/02/22 03:56:46;;;;;;;1.80;1.27;;;;;;;;;;6186443;23;20001;-87
2022/02/22 03:59:12;;;;;;;3.92;1.50;;;;;;;;;;6186514;23;20008;-88
2022/02/22 04:01:37;;;;;;;2.20;1.30;;;;;;;;;;6186417;23;20012;-87
2022/02/22 04:04:03;;;;;;;1.50;1.13;;;;;;;;;;6186643;23;20005;-87
2022/02/22 04:06:28;;;;;;;2.35;1.33;;;;;;;;;;6186683;23;20027;-86
2022/02/22 04:08:54;;;;;;;1.52;1.13;;;;;;;;;;6186356;23;20001;-84
2022/02/22 04:11:19;;;;;;;1.30;1.20;;;;;;;;;;6186059;23;20345;-84
2022/02/22 04:13:45;;;;;;;1.42;1.15;;;;;;;;;;6186464;23;20036;-87
2022/02/22 04:16:10;;;;;;;1.55;1.10;;;;;;;;;;6186554;23;20040;-88
2022/02/22 04:18:35;;;;;;;1.50;1.10;;;;;;;;;;6184873;23;20394;-88
2022/02/22 04:21:01;;;;;;;1.20;1.00;;;;;;;;;;6186468;23;20005;-88
2022/02/22 04:23:26;;;;;;;1.30;1.20;;;;;;;;;;6186500;23;20015;-88
2022/02/22 04:25:52;;;;;;;0.88;0.82;;;;;;;;;;6186293;23;20040;-84
2022/02/22 04:28:17;;;;;;;1.10;1.00;;;;;;;;;;6186338;23;20033;-87
2022/02/22 04:30:44;;;;;;;1.23;1.13;;;;;;;;;;6186531;23;20468;-88
2022/02/22 04:33:09;;;;;;;0.80;0.80;;;;;;;;;;6186276;23;20001;-88
2022/02/22 04:35:35;;;;;;;1.45;1.20;;;;;;;;;;6186378;23;20428;-87
2022/02/22 04:38:00;;;;;;;1.35;0.80;;;;;;;;;;6186400;23;20012;-87
2022/02/22 04:40:26;;;;;;;1.05;0.95;;;;;;;;;;6186785;23;20012;-88
2022/02/22 04:42:52;;;;;;;2.00;1.40;;;;;;;;;;6185736;23;20013;-85
2022/02/22 04:45:18;;;;;;;1.90;1.10;;;;;;;;;;6184777;23;20087;-88
2022/02/22 04:47:44;;;;;;;0.80;0.80;;;;;;;;;;6187678;23;20463;-88
2022/02/22 04:50:10;;;;;;;0.88;0.88;;;;;;;;;;6189720;23;20013;-88
2022/02/22 04:52:36;;;;;;;1.25;1.08;;;;;;;;;;6191176;23;20379;-88
2022/02/22 04:55:06;;;;;;;1.52;1.10;;;;;;;;;;6191459;23;20005;-87
2022/02/22 04:57:36;;;;;;;0.82;0.80;;;;;;;;;;6200571;23;20008;-87
2022/02/22 05:00:08;;;;;;;0.70;0.70;;;;;;;;;;6201718;23;20360;-84
2022/02/22 05:02:34;;;;;;;1.75;1.10;;;;;;;;;;6201572;23;20005;-87
2022/02/22 05:04:59;;;;;;;1.65;1.45;;;;;;;;;;6204459;23;20020;-86
2022/02/22 05:07:25;;;;;;;1.55;1.02;;;;;;;;;;6200873;23;20378;-85
2022/02/22 05:09:50;;;;;;;1.42;1.15;;;;;;;;;;6204073;23;20020;-85
2022/02/22 05:12:16;;;;;;;1.17;1.10;;;;;;;;;;6198932;23;20013;-85
2022/02/22 05:14:41;;;;;;;2.42;1.27;;;;;;;;;;6208993;23;20016;-85
2022/02/22 05:17:07;;;;;;;2.78;1.40;;;;;;;;;;6204793;23;20008;-86
2022/02/22 05:19:32;;;;;;;1.02;0.90;;;;;;;;;;6210257;23;20012;-87
2022/02/22 05:21:58;;;;;;;1.30;1.20;;;;;;;;;;6204662;23;20024;-84
2022/02/22 05:24:23;;;;;;;1.35;1.25;;;;;;;;;;6191041;23;20016;-87
2022/02/22 05:26:48;;;;;;;1.52;1.40;;;;;;;;;;6189809;23;20328;-87
2022/02/22 05:29:14;;;;;;;1.40;1.30;;;;;;;;;;6189634;23;20044;-87
2022/02/22 05:31:40;;;;;;;1.90;1.27;;;;;;;;;;6190029;23;20077;-84
2022/02/22 05:34:05;;;;;;;3.13;1.60;;;;;;;;;;6189735;23;20001;-87
2022/02/22 05:36:31;;;;;;;1.95;1.50;;;;;;;;;;6189474;23;20088;-87
2022/02/22 05:38:56;;;;;;;1.42;1.23;;;;;;;;;;6189211;23;20031;-84
2022/02/22 05:41:22;;;;;;;1.20;1.10;;;;;;;;;;6189427;23;20375;-84
2022/02/22 05:43:48;;;;;;;1.80;1.40;;;;;;;;;;6191541;23;20005;-85
2022/02/22 05:46:14;;;;;;;2.13;1.92;;;;;;;;;;6189715;23;20420;-87
2022/02/22 05:48:40;;;;;;;1.50;1.40;;;;;;;;;;6189735;23;20001;-84
2022/02/22 05:51:06;;;;;;;2.15;1.60;;;;;;;;;;6189274;23;20436;-84
2022/02/22 05:53:33;;;;;;;4.30;2.35;;;;;;;;;;6189126;23;20011;-84
2022/02/22 05:55:59;;;;;;;2.15;1.02;;;;;;;;;;6189045;23;20428;-84
2022/02/22 05:58:24;;;;;;;1.70;1.48;;;;;;;;;;6189372;23;20011;-85
2022/02/22 06:00:50;;;;;;;1.40;1.20;;;;;;;;;;6187903;23;20315;-86
2022/02/22 06:03:15;;;;;;;1.52;1.13;;;;;;;;;;6185880;23;20005;-82
2022/02/22 06:05:41;;;;;;;3.10;1.40;;;;;;;;;;6187662;23;20084;-86
2022/02/22 06:08:06;;;;;;;1.58;1.48;;;;;;;;;;6187564;23;20005;-84
2022/02/22 06:10:32;;;;;;;1.95;1.30;;;;;;;;;;6187325;23;20059;-87
2022/02/22 06:12:57;;;;;;;2.45;1.35;;;;;;;;;;6192024;23;20012;-87
2022/02/22 06:15:23;;;;;;;1.88;1.67;;;;;;;;;;6187476;23;20001;-84
2022/02/22 06:17:48;;;;;;;5.60;2.70;;;;;;;;;;6187556;23;20008;-83
2022/02/22 06:20:14;;;;;;;2.33;1.98;;;;;;;;;;6188928;23;20012;-87
2022/02/22 06:22:40;;;;;;;2.45;1.95;;;;;;;;;;6187341;23;20440;-88
2022/02/22 06:25:07;;;;;;;3.05;2.40;;;;;;;;;;6187537;23;20037;-85
2022/02/22 06:27:43;;;;;;;2.80;2.05;;;;;;;;;;6187508;23;20329;-88
2022/02/22 06:30:09;;;;;;;4.05;1.85;;;;;;;;;;6187381;23;20005;-87
2022/02/22 06:32:35;;;;;;;2.83;1.98;;;;;;;;;;6187204;23;20016;-82
2022/02/22 06:35:00;;;;;;;1.50;1.40;;;;;;;;;;6187966;23;20328;-84
2022/02/22 06:37:25;;;;;;;3.13;1.77;;;;;;;;;;6189888;23;20055;-81
2022/02/22 06:39:51;;;;;;;4.32;1.98;;;;;;;;;;6187230;23;20028;-83
2022/02/22 06:42:16;;;;;;;2.70;1.70;;;;;;;;;;6186968;23;20012;-85
2022/02/22 06:44:41;;;;;;;2.80;1.88;;;;;;;;;;6187056;23;20072;-86
2022/02/22 06:47:07;;;;;;;3.90;2.45;;;;;;;;;;6187142;23;20005;-86
2022/02/22 06:49:33;;;;;;;3.67;2.30;;;;;;;;;;6187215;23;20077;-85
2022/02/22 06:51:58;;;;;;;5.43;3.00;;;;;;;;;;6187041;23;20088;-85
2022/02/22 06:54:23;;;;;;;3.70;2.90;;;;;;;;;;6185552;23;20080;-86
2022/02/22 06:56:49;;;;;;;4.57;3.10;;;;;;;;;;6187166;23;20009;-83
2022/02/22 06:59:14;;;;;;;4.85;2.70;;;;;;;;;;6186921;23;20005;-85
2022/02/22 07:01:39;;;;;;;4.22;3.00;;;;;;;;;;6187013;23;20084;-87
2022/02/22 07:04:05;;;;;;;6.07;3.35;;;;;;;;;;6187406;23;20076;-87
2022/02/22 07:06:31;;;;;;;4.93;3.35;;;;;;;;;;6187182;23;20001;-83
2022/02/22 07:08:57;;;;;;;4.90;2.92;;;;;;;;;;6187030;23;20080;-86
2022/02/22 07:11:24;;;;;;;4.60;2.95;;;;;;;;;;6186864;23;20352;-86
2022/02/22 07:13:49;;;;;;;3.75;2.30;;;;;;;;;;6187162;23;20008;-84
2022/02/22 07:16:14;;;;;;;3.33;2.40;;;;;;;;;;6185440;23;20329;-82
2022/02/22 07:18:40;;;;;;;3.58;2.53;;;;;;;;;;6186741;23;20001;-81
2022/02/22 07:21:06;;;;;;;3.20;2.08;;;;;;;;;;6186633;23;20001;-86
2022/02/22 07:23:32;;;;;;;7.78;2.42;;;;;;;;;;6186929;23;20009;-90
2022/02/22 07:25:57;;;;;;;3.22;2.33;;;;;;;;;;6187322;23;20085;-89
2022/02/22 07:28:23;;;;;;;2.63;2.03;;;;;;;;;;6187573;23;20036;-90
2022/02/22 07:30:48;;;;;;;3.83;2.33;;;;;;;;;;6186040;23;20012;-89
2022/02/22 07:33:14;;;;;;;2.90;2.10;;;;;;;;;;6187315;23;20001;-89
2022/02/22 07:35:39;;;;;;;3.10;1.92;;;;;;;;;;6187195;23;20001;-90
2022/02/22 07:38:05;;;;;;;3.08;2.15;;;;;;;;;;6187524;23;19997;-92
2022/02/22 07:40:30;;;;;;;3.17;2.50;;;;;;;;;;6187336;23;20009;-84
2022/02/22 07:42:56;;;;;;;4.57;2.15;;;;;;;;;;6186669;23;20032;-88
2022/02/22 07:45:21;;;;;;;5.70;2.75;;;;;;;;;;6186454;23;20072;-88
2022/02/22 07:47:47;;;;;;;3.65;3.15;;;;;;;;;;6186837;23;20008;-87
2022/02/22 07:50:12;;;;;;;6.28;2.85;;;;;;;;;;6186956;23;20005;-87
2022/02/22 07:52:39;;;;;;;3.72;2.67;;;;;;;;;;6186811;23;20009;-87
2022/02/22 07:55:05;;;;;;;2.83;2.60;;;;;;;;;;6186579;23;20008;-87
2022/02/22 07:57:31;;;;;;;4.43;2.72;;;;;;;;;;6186542;23;20424;-82
2022/02/22 07:59:57;;;;;;;4.22;3.30;;;;;;;;;;6186711;23;20008;-91
2022/02/22 08:02:23;;;;;;;5.00;3.60;;;;;;;;;;6186276;23;20009;-88
2022/02/22 08:04:48;;;;;;;3.72;3.00;;;;;;;;;;6186719;23;20005;-87
2022/02/22 08:07:16;;;;;;;6.93;4.10;;;;;;;;;;6186831;23;20052;-87
2022/02/22 08:09:42;;;;;;;4.88;3.65;;;;;;;;;;6187031;23;20346;-87
2022/02/22 08:12:08;;;;;;;4.65;3.20;;;;;;;;;;6186632;23;20035;-83
2022/02/22 08:14:34;;;;;;;5.22;3.40;;;;;;;;;;6186618;23;20047;-84
2022/02/22 08:17:01;;;;;;;5.40;3.03;;;;;;;;;;6186728;23;20076;-83
2022/02/22 08:19:28;;;;;;;5.65;4.50;;;;;;;;;;6186635;23;20005;-84
2022/02/22 08:21:57;;;;;;;4.60;3.92;;;;;;;;;;6184432;23;20040;-89
2022/02/22 08:24:24;;;;;;;7.80;4.00;;;;;;;;;;6186591;23;20064;-89
2022/02/22 08:26:51;;;;;;;6.05;4.55;;;;;;;;;;6186891;23;20302;-86
2022/02/22 08:29:16;;;;;;;6.95;3.90;;;;;;;;;;6186537;23;20433;-86
2022/02/22 08:31:42;;;;;;;5.13;3.70;;;;;;;;;;6186841;23;20072;-82
2022/02/22 08:34:07;;;;;;;5.13;4.00;;;;;;;;;;6184804;23;20318;-89
2022/02/22 08:36:33;;;;;;;4.47;3.83;;;;;;;;;;6186657;23;20001;-87
2022/02/22 08:38:59;;;;;;;5.65;3.65;;;;;;;;;;6186300;23;20001;-82
2022/02/22 08:41:25;;;;;;;6.78;4.00;;;;;;;;;;6186273;23;20005;-82
2022/02/22 08:43:50;;;;;;;4.53;3.80;;;;;;;;;;6187090;23;20021;-89
2022/02/22 08:46:17;;;;;;;5.93;3.65;;;;;;;;;;6187229;23;20005;-88
2022/02/22 10:11:50;;;;;;;1.48;0.70;;;;;;;;;;6172853;23;20017;-82
2022/02/22 10:14:20;;;;;;;1.17;0.70;;;;;;;;;;6160909;23;20025;-85
2022/02/22 10:16:46;;;;;;;1.10;1.02;;;;;;;;;;6187295;23;20051;-86
2022/02/22 10:19:14;;;;;;;0.57;0.55;;;;;;;;;;6187376;23;20001;-84
2022/02/22 10:21:54;;;;;;;0.70;0.70;;;;;;;;;;6187809;23;20425;-87
2022/02/22 10:24:21;;;;;;;2.00;0.90;;;;;;;;;;6160896;23;20027;-85
2022/02/22 10:26:47;;;;;;;1.10;1.00;;;;;;;;;;6187576;23;20004;-83
2022/02/22 10:29:19;;;;;;;1.58;1.48;;;;;;;;;;6187364;23;19998;-83
2022/02/22 10:31:46;;;;;;;1.00;1.00;;;;;;;;;;6187512;23;20104;-84
2022/02/22 10:34:12;;;;;;;3.80;1.13;;;;;;;;;;6187511;23;20080;-87
2022/02/22 10:36:47;;;;;;;1.17;1.10;;;;;;;;;;6160941;23;19997;-83
2022/02/22 10:39:12;;;;;;;1.13;1.13;;;;;;;;;;6185950;23;20005;-87
2022/02/22 10:41:42;;;;;;;1.23;1.23;;;;;;;;;;6187524;23;20023;-87
2022/02/22 10:44:09;;;;;;;1.17;1.17;;;;;;;;;;6187427;23;20001;-84
2022/02/22 10:46:37;;;;;;;1.58;1.48;;;;;;;;;;6187048;23;20037;-88
2022/02/22 10:49:14;;;;;;;1.52;1.52;;;;;;;;;;6188834;23;20012;-86
2022/02/22 10:51:43;;;;;;;3.15;1.50;;;;;;;;;;6187525;23;20008;-87
2022/02/22 10:54:18;;;;;;;1.30;1.30;;;;;;;;;;6187115;23;20388;-87
2022/02/22 10:56:43;;;;;;;3.65;1.33;;;;;;;;;;6187012;23;20012;-84
2022/02/22 10:59:09;;;;;;;1.25;1.15;;;;;;;;;;6161078;23;20009;-86
2022/02/22 11:01:34;;;;;;;1.08;1.00;;;;;;;;;;6187761;23;20372;-88
2022/02/22 11:04:00;;;;;;;1.85;1.10;;;;;;;;;;6187585;23;20005;-87
2022/02/22 11:06:26;;;;;;;1.00;1.00;;;;;;;;;;6187218;23;20012;-86
2022/02/22 11:08:56;;;;;;;0.90;0.90;;;;;;;;;;6190285;23;20008;-82
2022/02/22 11:11:43;;;;;;;1.63;0.90;;;;;;;;;;6186890;23;20013;-83
2022/02/22 11:14:17;;;;;;;0.75;0.73;;;;;;;;;;6186505;23;20078;-80
2022/02/22 11:16:55;;;;;;;1.20;0.80;;;;;;;;;;6186762;23;20085;-83
2022/02/22 11:19:22;;;;;;;0.52;0.50;;;;;;;;;;6186917;23;20001;-84
2022/02/22 11:21:53;;;;;;;1.13;0.73;;;;;;;;;;6186562;23;20051;-83
2022/02/22 11:24:21;;;;;;;0.82;0.82;;;;;;;;;;6186920;23;20012;-84
2022/02/22 11:26:55;;;;;;;0.70;0.70;;;;;;;;;;6186530;23;20008;-85
2022/02/22 11:29:22;;;;;;;1.65;0.70;;;;;;;;;;6187050;23;20001;-85
2022/02/22 11:32:07;;;;;;;0.80;0.80;;;;;;;;;;6187462;23;20011;-84
2022/02/22 11:34:38;;;;;;;0.57;0.57;;;;;;;;;;6187167;23;20076;-85
2022/02/22 11:37:06;;;;;;;0.70;0.70;;;;;;;;;;6185121;23;20421;-85
2022/02/22 11:39:55;;;;;;;0.60;0.60;;;;;;;;;;6187485;23;20005;-84
2022/02/22 11:42:24;;;;;;;0.63;0.63;;;;;;;;;;6186048;23;20044;-86
2022/02/22 11:45:10;;;;;;;0.90;0.88;;;;;;;;;;6187647;23;20309;-86
2022/02/22 11:47:39;;;;;;;1.02;0.80;;;;;;;;;;6188830;23;20084;-86
2022/02/22 11:50:18;;;;;;;0.55;0.55;;;;;;;;;;6191447;23;20425;-84
2022/02/22 11:52:48;;;;;;;0.50;0.50;;;;;;;;;;6193121;23;20005;-86
2022/02/22 11:55:19;;;;;;;1.85;0.70;;;;;;;;;;6191158;23;20016;-86
2022/02/22 11:57:45;;;;;;;0.95;0.70;;;;;;;;;;6200978;23;20053;-85
2022/02/22 12:00:13;;;;;;;0.75;0.65;;;;;;;;;;6198935;23;20008;-83
2022/02/22 12:02:42;;;;;;;0.90;0.55;;;;;;;;;;6196083;23;20020;-87
2022/02/22 12:05:38;;;;;;;0.60;0.60;;;;;;;;;;6201774;23;20001;-86
2022/02/22 12:08:21;;;;;;;0.57;0.57;;;;;;;;;;6198563;23;20009;-84
2022/02/22 12:10:54;;;;;;;0.70;0.50;;;;;;;;;;6194882;23;20068;-88
2022/02/22 12:13:23;;;;;;;0.55;0.40;;;;;;;;;;6190352;23;20008;-88
2022/02/22 12:15:49;;;;;;;1.02;0.55;;;;;;;;;;6186641;23;20001;-86
2022/02/22 12:18:16;;;;;;;1.58;0.90;;;;;;;;;;6184791;23;20005;-87
2022/02/22 12:20:45;;;;;;;1.67;0.63;;;;;;;;;;6186370;23;20001;-87
2022/02/22 12:23:21;;;;;;;0.77;0.60;;;;;;;;;;6209303;23;20416;-85
2022/02/22 12:25:49;;;;;;;0.60;0.60;;;;;;;;;;6186320;23;20005;-85
2022/02/22 12:28:15;;;;;;;0.60;0.60;;;;;;;;;;6186506;23;20033;-83
2022/02/22 12:30:43;;;;;;;1.20;0.50;;;;;;;;;;6186712;23;20012;-85
2022/02/22 12:33:09;;;;;;;0.75;0.75;;;;;;;;;;6185057;23;20020;-87
2022/02/22 12:35:38;;;;;;;1.50;0.60;;;;;;;;;;6187121;23;20427;-90
2022/02/22 12:38:17;;;;;;;1.10;0.80;;;;;;;;;;6187063;23;20012;-85
2022/02/22 12:40:43;;;;;;;1.25;1.00;;;;;;;;;;6187158;23;20083;-84
2022/02/22 12:43:11;;;;;;;1.13;1.10;;;;;;;;;;6186981;23;20035;-89
2022/02/22 17:29:50;;;;;;;0.65;0.60;;;;;;;;;;6169024;23;20259;-88
2022/02/22 17:32:16;;;;;;;0.70;0.70;;;;;;;;;;6169043;23;20465;-87
2022/02/22 17:34:42;;;;;;;0.65;0.65;;;;;;;;;;6186473;23;20436;-89
2022/02/22 17:37:08;;;;;;;0.70;0.70;;;;;;;;;;6160054;23;20012;-90
2022/02/22 17:39:33;;;;;;;3.08;2.78;;;;;;;;;;6184954;23;20118;-89
2022/02/22 17:41:58;;;;;;;5.22;3.53;;;;;;;;;;6186068;23;19997;-89
2022/02/22 17:44:24;;;;;;;6.40;5.80;;;;;;;;;;6186108;23;20005;-88
2022/02/22 17:46:49;;;;;;;5.90;5.38;;;;;;;;;;6186118;23;20005;-87
2022/02/22 17:49:15;;;;;;;10.45;9.15;;;;;;;;;;6185861;23;20412;-88
2022/02/22 17:51:41;;;;;;;5.20;4.80;;;;;;;;;;6187189;23;20369;-87
2022/02/22 17:54:07;;;;;;;2.30;2.10;;;;;;;;;;6186136;23;20005;-87
2022/02/22 17:56:33;;;;;;;10.07;9.18;;;;;;;;;;6187131;23;20049;-88
2022/02/22 17:58:59;;;;;;;20.48;18.30;;;;;;;;;;6188199;23;20013;-87
2022/02/22 18:01:28;;;;;;;14.18;11.95;;;;;;;;;;6188983;23;20001;-90
2022/02/22 18:03:57;;;;;;;3.70;3.40;;;;;;;;;;6189925;23;20032;-88
2022/02/22 18:06:27;;;;;;;1.75;1.55;;;;;;;;;;6190620;23;20010;-89
2022/02/22 18:08:53;;;;;;;3.00;2.70;;;;;;;;;;6198736;23;20020;-88
2022/02/22 18:11:21;;;;;;;1.85;1.70;;;;;;;;;;6200281;23;20005;-88
2022/02/22 18:13:46;;;;;;;2.35;2.15;;;;;;;;;;6203611;23;20498;-86
2022/02/22 18:16:12;;;;;;;1.80;1.70;;;;;;;;;;6199991;23;20001;-85
2022/02/22 18:18:37;;;;;;;1.25;1.15;;;;;;;;;;6198899;23;20001;-87
2022/02/22 18:21:03;;;;;;;1.20;1.10;;;;;;;;;;6198697;23;20012;-89
2022/02/22 18:23:29;;;;;;;1.35;0.75;;;;;;;;;;6201150;23;20009;-85
2022/02/22 18:25:55;;;;;;;0.90;0.90;;;;;;;;;;6202987;23;20001;-85
2022/02/22 18:28:20;;;;;;;1.92;1.50;;;;;;;;;;6202822;23;20004;-89
2022/02/22 18:30:45;;;;;;;1.15;1.00;;;;;;;;;;6188175;23;20016;-88
2022/02/22 18:33:11;;;;;;;2.45;0.95;;;;;;;;;;6189212;23;20324;-89
2022/02/22 18:35:36;;;;;;;0.68;0.68;;;;;;;;;;6188848;23;20004;-88
2022/02/22 18:38:02;;;;;;;0.60;0.60;;;;;;;;;;6188216;23;20056;-85
2022/02/22 18:40:27;;;;;;;1.98;0.98;;;;;;;;;;6186060;23;20064;-87
2022/02/22 18:42:53;;;;;;;1.27;0.70;;;;;;;;;;6185729;23;20086;-88
2022/02/22 18:45:18;;;;;;;0.75;0.70;;;;;;;;;;6187522;23;20425;-88
2022/02/22 18:47:45;;;;;;;0.90;0.90;;;;;;;;;;6187579;23;20001;-90
2022/02/22 18:50:12;;;;;;;1.50;1.40;;;;;;;;;;6187510;23;20027;-89
2022/02/22 18:52:38;;;;;;;1.67;1.55;;;;;;;;;;6187314;23;20001;-88
2022/02/22 18:55:04;;;;;;;1.40;1.20;;;;;;;;;;6185982;23;20075;-86
2022/02/22 18:57:29;;;;;;;1.20;1.00;;;;;;;;;;6187208;23;20412;-89
2022/02/22 18:59:55;;;;;;;2.08;1.92;;;;;;;;;;6188532;23;20309;-87
2022/02/22 19:02:20;;;;;;;1.77;1.67;;;;;;;;;;6189138;23;20012;-89
2022/02/22 19:04:46;;;;;;;2.00;1.70;;;;;;;;;;6187826;23;20008;-89
2022/02/22 19:07:11;;;;;;;1.77;1.60;;;;;;;;;;6187061;23;19993;-89
2022/02/22 19:09:38;;;;;;;2.58;1.95;;;;;;;;;;6186957;23;20032;-89
2022/02/22 19:12:04;;;;;;;2.22;2.00;;;;;;;;;;6187599;23;19997;-86
2022/02/22 19:14:29;;;;;;;2.10;1.90;;;;;;;;;;6186427;23;20001;-86
2022/02/22 19:16:56;;;;;;;2.17;2.05;;;;;;;;;;6187026;23;20037;-85
2022/02/22 19:19:21;;;;;;;2.15;1.70;;;;;;;;;;6187067;23;19997;-88
2022/02/22 19:21:47;;;;;;;2.03;1.85;;;;;;;;;;6185514;23;20005;-88
2022/02/22 19:24:12;;;;;;;2.70;2.40;;;;;;;;;;6186078;23;20009;-86
2022/02/22 19:26:38;;;;;;;1.98;1.80;;;;;;;;;;6187154;23;19996;-87
2022/02/22 19:29:04;;;;;;;8.75;5.63;;;;;;;;;;6187270;23;20428;-93
2022/02/22 19:31:29;;;;;;;2.67;2.20;;;;;;;;;;6185707;23;20016;-86
2022/02/22 19:33:54;;;;;;;6.55;5.00;;;;;;;;;;6187272;23;20001;-89
2022/02/22 19:36:20;;;;;;;5.82;4.85;;;;;;;;;;6187632;23;20001;-87
2022/02/22 19:38:47;;;;;;;4.85;3.53;;;;;;;;;;6187357;23;20001;-87
2022/02/22 19:41:13;;;;;;;4.07;3.67;;;;;;;;;;6185585;23;20079;-89
2022/02/22 19:43:38;;;;;;;5.85;5.20;;;;;;;;;;6185524;23;20001;-91
2022/02/22 19:46:04;;;;;;;3.22;2.92;;;;;;;;;;6187103;23;20001;-90
2022/02/22 19:48:30;;;;;;;5.05;4.28;;;;;;;;;;6185275;23;20005;-89
2022/02/22 19:50:55;;;;;;;2.08;1.65;;;;;;;;;;6187165;23;20005;-88
2022/02/22 19:53:21;;;;;;;2.25;1.70;;;;;;;;;;6186798;23;20409;-90
2022/02/22 19:55:47;;;;;;;1.85;1.50;;;;;;;;;;6185409;23;20142;-87
2022/02/22 19:58:13;;;;;;;2.72;2.22;;;;;;;;;;6186586;23;20002;-86
2022/02/22 20:00:38;;;;;;;4.78;4.18;;;;;;;;;;6186016;23;20015;-87
2022/02/22 20:03:04;;;;;;;4.38;3.00;;;;;;;;;;6186891;23;20079;-84
2022/02/22 20:05:31;;;;;;;3.42;2.40;;;;;;;;;;6186601;23;20052;-89
2022/02/22 20:07:56;;;;;;;3.22;2.80;;;;;;;;;;6187077;23;20071;-93
2022/02/22 20:10:23;;;;;;;2.45;2.15;;;;;;;;;;6186910;23;20413;-89
2022/02/22 20:12:49;;;;;;;3.00;1.80;;;;;;;;;;6187285;23;20016;-87
2022/02/22 20:15:14;;;;;;;3.33;2.13;;;;;;;;;;6185690;23;20005;-93
2022/02/22 20:17:40;;;;;;;2.08;1.88;;;;;;;;;;6186912;23;20023;-87
2022/02/22 20:20:06;;;;;;;6.15;3.92;;;;;;;;;;6186480;23;20001;-90
2022/02/22 20:22:34;;;;;;;6.28;3.88;;;;;;;;;;6186824;23;20380;-86
2022/02/22 20:25:00;;;;;;;6.10;4.07;;;;;;;;;;6188608;23;20008;-86
2022/02/22 20:27:25;;;;;;;6.88;4.10;;;;;;;;;;6185789;23;20020;-86
2022/02/22 20:29:51;;;;;;;6.25;4.07;;;;;;;;;;6186169;23;20013;-88
2022/02/22 20:32:16;;;;;;;5.22;3.50;;;;;;;;;;6184856;23;20102;-91
2022/02/22 20:34:42;;;;;;;4.45;3.55;;;;;;;;;;6185746;23;20028;-93
2022/02/22 20:37:07;;;;;;;6.18;4.15;;;;;;;;;;6185643;23;20005;-90
2022/02/22 20:39:33;;;;;;;5.07;3.53;;;;;;;;;;6187472;23;19997;-89
2022/02/22 20:41:58;;;;;;;4.55;3.85;;;;;;;;;;6184881;23;20004;-87
2022/02/22 20:44:24;;;;;;;9.27;6.90;;;;;;;;;;6184924;23;20005;-87
2022/02/22 20:46:50;;;;;;;8.00;4.57;;;;;;;;;;6184545;23;20412;-88
2022/02/22 20:49:15;;;;;;;8.10;5.30;;;;;;;;;;6186402;23;20028;-86
2022/02/22 20:51:41;;;;;;;7.30;4.05;;;;;;;;;;6186230;23;20005;-86
2022/02/22 20:54:07;;;;;;;5.75;4.10;;;;;;;;;;6186378;23;20005;-87
2022/02/22 20:56:32;;;;;;;5.15;4.65;;;;;;;;;;6184799;23;20012;-85
2022/02/22 20:58:58;;;;;;;5.18;4.30;;;;;;;;;;6184355;23;20005;-86
2022/02/22 21:01:23;;;;;;;8.18;5.05;;;;;;;;;;6185953;23;20008;-87
2022/02/22 21:03:49;;;;;;;3.38;2.30;;;;;;;;;;6186095;23;20416;-87
2022/02/22 21:06:14;;;;;;;8.38;4.57;;;;;;;;;;6185015;23;20009;-85
2022/02/22 21:08:40;;;;;;;5.68;4.53;;;;;;;;;;6185661;23;20002;-85
2022/02/22 21:11:06;;;;;;;6.90;4.75;;;;;;;;;;6184170;23;20096;-86
2022/02/22 21:13:35;;;;;;;6.22;4.15;;;;;;;;;;6184309;23;20005;-88
2022/02/22 21:16:04;;;;;;;7.00;4.95;;;;;;;;;;6184186;23;20005;-87
2022/02/22 21:18:31;;;;;;;9.20;8.15;;;;;;;;;;6184001;23;20443;-86
2022/02/22 21:20:59;;;;;;;6.10;4.07;;;;;;;;;;6184312;23;20005;-88
2022/02/22 21:23:25;;;;;;;4.75;2.70;;;;;;;;;;6185647;23;20009;-86
2022/02/22 21:25:51;;;;;;;2.38;2.00;;;;;;;;;;6185532;23;20055;-86
2022/02/22 21:28:17;;;;;;;4.65;2.90;;;;;;;;;;6185540;23;20424;-84
2022/02/22 21:30:42;;;;;;;3.90;2.65;;;;;;;;;;6185709;23;20019;-84
2022/02/22 21:33:08;;;;;;;1.88;1.58;;;;;;;;;;6187294;23;20020;-85
2022/02/22 21:35:35;;;;;;;3.92;2.63;;;;;;;;;;6187512;23;20033;-85
2022/02/22 21:38:02;;;;;;;2.05;1.85;;;;;;;;;;6187447;23;20327;-88
2022/02/22 21:40:28;;;;;;;2.92;2.30;;;;;;;;;;6189667;23;20009;-85
2022/02/22 21:42:54;;;;;;;3.08;1.95;;;;;;;;;;6187271;23;20032;-85
2022/02/22 21:45:20;;;;;;;2.10;1.88;;;;;;;;;;6186341;23;20443;-86
2022/02/22 21:47:45;;;;;;;2.67;2.03;;;;;;;;;;6187596;23;20000;-86
2022/02/22 21:50:11;;;;;;;1.77;1.67;;;;;;;;;;6186032;23;20008;-86
2022/02/22 21:52:36;;;;;;;6.60;3.78;;;;;;;;;;6187382;23;20039;-83
2022/02/22 21:55:05;;;;;;;4.38;2.85;;;;;;;;;;6187340;23;20057;-86